sensor_id;sensor_type;location;lat;lon;timestamp;temperature;humidity
13585;DHT22;6863;48.402;9.994;2023-06-22T00:00:49;19.10;99.90
13585;DHT22;6863;48.402;9.994;2023-06-22T00:03:15;19.10;99.90
13585;DHT22;6863;48.402;9.994;2023-06-22T00:08:16;19.10;99.90
13585;DHT22;6863;48.402;9.994;2023-06-22T00:10:42;19.10;99.90
13585;DHT22;6863;48.402;9.994;2023-06-22T00:13:09;19.10;99.90
13585;DHT22;6863;48.402;9.994;2023-06-22T00:15:36;19.10;99.90
13585;DHT22;6863;48.402;9.994;2023-06-22T00:18:02;19.00;99.90
13585;DHT22;6863;48.402;9.994;2023-06-22T00:20:28;19.00;99.90
13585;DHT22;6863;48.402;9.994;2023-06-22T00:22:54;18.90;99.90
13585;DHT22;6863;48.402;9.994;2023-06-22T00:25:21;18.90;99.90
13585;DHT22;6863;48.402;9.994;2023-06-22T00:27:47;18.90;99.90
13585;DHT22;6863;48.402;9.994;2023-06-22T00:30:13;19.00;99.90
13585;DHT22;6863;48.402;9.994;2023-06-22T00:32:39;18.90;99.90
13585;DHT22;6863;48.402;9.994;2023-06-22T00:35:05;18.90;99.90
13585;DHT22;6863;48.402;9.994;2023-06-22T00:37:30;18.90;99.90
13585;DHT22;6863;48.402;9.994;2023-06-22T00:39:56;18.80;99.90
13585;DHT22;6863;48.402;9.994;2023-06-22T00:42:22;18.80;99.90
13585;DHT22;6863;48.402;9.994;2023-06-22T00:44:48;18.80;99.90
13585;DHT22;6863;48.402;9.994;2023-06-22T00:47:16;18.80;99.90
13585;DHT22;6863;48.402;9.994;2023-06-22T00:49:42;18.80;99.90
13585;DHT22;6863;48.402;9.994;2023-06-22T00:52:08;18.70;99.90
13585;DHT22;6863;48.402;9.994;2023-06-22T00:54:40;18.60;99.90
13585;DHT22;6863;48.402;9.994;2023-06-22T00:57:09;18.60;99.90
13585;DHT22;6863;48.402;9.994;2023-06-22T00:59:37;18.60;99.90
13585;DHT22;6863;48.402;9.994;2023-06-22T01:02:03;18.50;99.90
13585;DHT22;6863;48.402;9.994;2023-06-22T01:04:35;18.60;99.90
13585;DHT22;6863;48.402;9.994;2023-06-22T01:07:20;18.60;99.90
13585;DHT22;6863;48.402;9.994;2023-06-22T01:09:50;18.50;99.90
13585;DHT22;6863;48.402;9.994;2023-06-22T01:12:18;18.50;99.90
13585;DHT22;6863;48.402;9.994;2023-06-22T01:14:53;18.50;99.90
13585;DHT22;6863;48.402;9.994;2023-06-22T01:17:21;18.50;99.90
13585;DHT22;6863;48.402;9.994;2023-06-22T01:19:49;18.40;99.90
13585;DHT22;6863;48.402;9.994;2023-06-22T01:22:23;18.40;99.90
13585;DHT22;6863;48.402;9.994;2023-06-22T01:25:12;18.40;99.90
13585;DHT22;6863;48.402;9.994;2023-06-22T01:30:41;18.30;99.90
13585;DHT22;6863;48.402;9.994;2023-06-22T01:33:10;18.30;99.90
13585;DHT22;6863;48.402;9.994;2023-06-22T01:35:38;18.30;99.90
13585;DHT22;6863;48.402;9.994;2023-06-22T01:38:04;18.20;99.90
13585;DHT22;6863;48.402;9.994;2023-06-22T01:40:31;18.20;99.90
13585;DHT22;6863;48.402;9.994;2023-06-22T01:43:00;18.20;99.90
13585;DHT22;6863;48.402;9.994;2023-06-22T01:45:27;18.20;99.90
13585;DHT22;6863;48.402;9.994;2023-06-22T01:47:53;18.20;99.90
13585;DHT22;6863;48.402;9.994;2023-06-22T01:50:19;18.20;99.90
13585;DHT22;6863;48.402;9.994;2023-06-22T01:52:45;18.20;99.90
13585;DHT22;6863;48.402;9.994;2023-06-22T01:55:11;18.20;99.90
13585;DHT22;6863;48.402;9.994;2023-06-22T01:57:37;18.10;99.90
13585;DHT22;6863;48.402;9.994;2023-06-22T02:00:12;18.10;99.90
13585;DHT22;6863;48.402;9.994;2023-06-22T02:08:22;18.10;99.90
13585;DHT22;6863;48.402;9.994;2023-06-22T02:10:49;18.10;99.90
13585;DHT22;6863;48.402;9.994;2023-06-22T02:13:16;18.10;99.90
13585;DHT22;6863;48.402;9.994;2023-06-22T02:15:42;18.20;99.90
13585;DHT22;6863;48.402;9.994;2023-06-22T02:18:09;18.10;99.90
13585;DHT22;6863;48.402;9.994;2023-06-22T02:20:38;18.10;99.90
13585;DHT22;6863;48.402;9.994;2023-06-22T02:23:05;18.10;99.90
13585;DHT22;6863;48.402;9.994;2023-06-22T02:25:32;18.10;99.90
13585;DHT22;6863;48.402;9.994;2023-06-22T02:27:57;18.10;99.90
13585;DHT22;6863;48.402;9.994;2023-06-22T02:30:23;18.10;99.90
13585;DHT22;6863;48.402;9.994;2023-06-22T02:32:48;18.00;99.90
13585;DHT22;6863;48.402;9.994;2023-06-22T02:35:14;18.00;99.90
13585;DHT22;6863;48.402;9.994;2023-06-22T02:37:40;18.00;99.90
13585;DHT22;6863;48.402;9.994;2023-06-22T02:40:10;18.00;99.90
13585;DHT22;6863;48.402;9.994;2023-06-22T02:42:39;18.10;99.90
13585;DHT22;6863;48.402;9.994;2023-06-22T02:45:05;18.10;99.90
13585;DHT22;6863;48.402;9.994;2023-06-22T02:47:30;18.00;99.90
13585;DHT22;6863;48.402;9.994;2023-06-22T02:49:56;18.00;99.90
13585;DHT22;6863;48.402;9.994;2023-06-22T02:52:22;18.00;99.90
13585;DHT22;6863;48.402;9.994;2023-06-22T02:54:47;18.00;99.90
13585;DHT22;6863;48.402;9.994;2023-06-22T02:57:13;18.00;99.90
13585;DHT22;6863;48.402;9.994;2023-06-22T02:59:42;18.10;99.90
13585;DHT22;6863;48.402;9.994;2023-06-22T03:02:08;18.10;99.90
13585;DHT22;6863;48.402;9.994;2023-06-22T03:04:35;18.10;99.90
13585;DHT22;6863;48.402;9.994;2023-06-22T03:07:00;18.00;99.90
13585;DHT22;6863;48.402;9.994;2023-06-22T03:09:27;18.10;99.90
13585;DHT22;6863;48.402;9.994;2023-06-22T03:11:56;18.00;99.90
13585;DHT22;6863;48.402;9.994;2023-06-22T03:14:22;18.00;99.90
13585;DHT22;6863;48.402;9.994;2023-06-22T03:16:48;18.00;99.90
13585;DHT22;6863;48.402;9.994;2023-06-22T03:19:13;18.00;99.90
13585;DHT22;6863;48.402;9.994;2023-06-22T03:21:39;18.00;99.90
13585;DHT22;6863;48.402;9.994;2023-06-22T03:24:06;18.00;99.90
13585;DHT22;6863;48.402;9.994;2023-06-22T03:26:32;18.00;99.90
13585;DHT22;6863;48.402;9.994;2023-06-22T03:28:58;18.00;99.90
13585;DHT22;6863;48.402;9.994;2023-06-22T03:31:23;18.00;99.90
13585;DHT22;6863;48.402;9.994;2023-06-22T03:33:50;18.00;99.90
13585;DHT22;6863;48.402;9.994;2023-06-22T03:36:16;18.00;99.90
13585;DHT22;6863;48.402;9.994;2023-06-22T03:38:46;18.00;99.90
13585;DHT22;6863;48.402;9.994;2023-06-22T03:41:12;18.10;99.90
13585;DHT22;6863;48.402;9.994;2023-06-22T03:43:38;18.10;99.90
13585;DHT22;6863;48.402;9.994;2023-06-22T03:46:03;18.10;99.90
13585;DHT22;6863;48.402;9.994;2023-06-22T03:48:29;18.10;99.90
13585;DHT22;6863;48.402;9.994;2023-06-22T03:50:54;18.20;99.90
13585;DHT22;6863;48.402;9.994;2023-06-22T03:53:20;18.20;99.90
13585;DHT22;6863;48.402;9.994;2023-06-22T03:55:51;18.20;99.90
13585;DHT22;6863;48.402;9.994;2023-06-22T03:58:17;18.30;99.90
13585;DHT22;6863;48.402;9.994;2023-06-22T04:00:53;18.30;99.90
13585;DHT22;6863;48.402;9.994;2023-06-22T04:03:19;18.30;99.90
13585;DHT22;6863;48.402;9.994;2023-06-22T04:08:10;18.40;99.90
13585;DHT22;6863;48.402;9.994;2023-06-22T04:10:36;18.30;99.90
13585;DHT22;6863;48.402;9.994;2023-06-22T04:13:02;18.40;99.90
13585;DHT22;6863;48.402;9.994;2023-06-22T04:15:27;18.50;99.90
13585;DHT22;6863;48.402;9.994;2023-06-22T04:17:55;18.50;99.90
13585;DHT22;6863;48.402;9.994;2023-06-22T04:20:21;18.40;99.90
13585;DHT22;6863;48.402;9.994;2023-06-22T04:22:47;18.50;99.90
13585;DHT22;6863;48.402;9.994;2023-06-22T04:25:12;18.60;99.90
13585;DHT22;6863;48.402;9.994;2023-06-22T04:27:38;18.60;99.90
13585;DHT22;6863;48.402;9.994;2023-06-22T04:30:06;18.60;99.90
13585;DHT22;6863;48.402;9.994;2023-06-22T04:32:33;18.70;99.90
13585;DHT22;6863;48.402;9.994;2023-06-22T04:34:58;18.80;99.90
13585;DHT22;6863;48.402;9.994;2023-06-22T04:37:26;18.80;99.90
13585;DHT22;6863;48.402;9.994;2023-06-22T04:39:51;18.90;99.90
13585;DHT22;6863;48.402;9.994;2023-06-22T04:42:17;19.00;99.90
13585;DHT22;6863;48.402;9.994;2023-06-22T04:44:43;19.10;99.90
13585;DHT22;6863;48.402;9.994;2023-06-22T04:47:09;19.20;99.90
13585;DHT22;6863;48.402;9.994;2023-06-22T04:49:35;19.30;99.90
13585;DHT22;6863;48.402;9.994;2023-06-22T04:52:07;19.30;99.90
13585;DHT22;6863;48.402;9.994;2023-06-22T04:54:34;19.40;99.90
13585;DHT22;6863;48.402;9.994;2023-06-22T04:57:03;19.50;99.90
13585;DHT22;6863;48.402;9.994;2023-06-22T04:59:30;19.60;99.90
13585;DHT22;6863;48.402;9.994;2023-06-22T05:02:00;19.70;99.90
13585;DHT22;6863;48.402;9.994;2023-06-22T05:04:27;19.80;99.90
13585;DHT22;6863;48.402;9.994;2023-06-22T05:06:57;19.90;99.90
13585;DHT22;6863;48.402;9.994;2023-06-22T05:09:22;20.00;99.90
13585;DHT22;6863;48.402;9.994;2023-06-22T05:11:49;20.10;99.90
13585;DHT22;6863;48.402;9.994;2023-06-22T05:14:14;20.00;99.90
13585;DHT22;6863;48.402;9.994;2023-06-22T05:16:41;20.00;99.90
13585;DHT22;6863;48.402;9.994;2023-06-22T05:19:07;20.00;99.90
13585;DHT22;6863;48.402;9.994;2023-06-22T05:21:33;20.20;99.90
13585;DHT22;6863;48.402;9.994;2023-06-22T05:23:59;20.10;99.90
13585;DHT22;6863;48.402;9.994;2023-06-22T05:26:33;20.20;99.90
13585;DHT22;6863;48.402;9.994;2023-06-22T05:28:59;20.30;99.90
13585;DHT22;6863;48.402;9.994;2023-06-22T05:31:26;20.40;99.90
13585;DHT22;6863;48.402;9.994;2023-06-22T05:33:53;20.40;99.90
13585;DHT22;6863;48.402;9.994;2023-06-22T05:36:19;20.40;99.90
13585;DHT22;6863;48.402;9.994;2023-06-22T05:38:47;20.50;99.90
13585;DHT22;6863;48.402;9.994;2023-06-22T05:41:12;20.70;99.90
13585;DHT22;6863;48.402;9.994;2023-06-22T05:43:39;20.80;99.90
13585;DHT22;6863;48.402;9.994;2023-06-22T05:46:05;20.90;99.90
13585;DHT22;6863;48.402;9.994;2023-06-22T05:48:30;20.90;99.90
13585;DHT22;6863;48.402;9.994;2023-06-22T05:50:56;21.00;99.90
13585;DHT22;6863;48.402;9.994;2023-06-22T05:53:22;21.00;99.90
13585;DHT22;6863;48.402;9.994;2023-06-22T05:55:48;21.00;99.90
13585;DHT22;6863;48.402;9.994;2023-06-22T05:58:13;20.90;99.90
13585;DHT22;6863;48.402;9.994;2023-06-22T06:00:40;21.00;99.90
13585;DHT22;6863;48.402;9.994;2023-06-22T06:03:07;21.10;99.90
13585;DHT22;6863;48.402;9.994;2023-06-22T06:08:12;21.40;99.90
13585;DHT22;6863;48.402;9.994;2023-06-22T06:10:38;21.60;99.90
13585;DHT22;6863;48.402;9.994;2023-06-22T06:13:04;21.70;99.90
13585;DHT22;6863;48.402;9.994;2023-06-22T06:15:31;21.80;99.90
13585;DHT22;6863;48.402;9.994;2023-06-22T06:17:57;21.90;99.90
13585;DHT22;6863;48.402;9.994;2023-06-22T06:20:24;22.00;99.90
13585;DHT22;6863;48.402;9.994;2023-06-22T06:22:51;22.10;99.90
13585;DHT22;6863;48.402;9.994;2023-06-22T06:25:17;22.00;99.90
13585;DHT22;6863;48.402;9.994;2023-06-22T06:27:49;22.20;99.90
13585;DHT22;6863;48.402;9.994;2023-06-22T06:30:17;22.20;99.90
13585;DHT22;6863;48.402;9.994;2023-06-22T06:32:44;22.30;99.90
13585;DHT22;6863;48.402;9.994;2023-06-22T06:35:11;22.40;99.90
13585;DHT22;6863;48.402;9.994;2023-06-22T06:37:39;22.60;99.90
13585;DHT22;6863;48.402;9.994;2023-06-22T06:40:06;22.70;99.90
13585;DHT22;6863;48.402;9.994;2023-06-22T06:42:35;22.90;99.90
13585;DHT22;6863;48.402;9.994;2023-06-22T06:45:04;22.80;99.90
13585;DHT22;6863;48.402;9.994;2023-06-22T06:47:29;22.90;99.90
13585;DHT22;6863;48.402;9.994;2023-06-22T06:49:55;23.20;99.90
13585;DHT22;6863;48.402;9.994;2023-06-22T06:52:21;23.40;99.90
13585;DHT22;6863;48.402;9.994;2023-06-22T06:54:46;23.60;99.90
13585;DHT22;6863;48.402;9.994;2023-06-22T06:57:12;23.70;99.90
13585;DHT22;6863;48.402;9.994;2023-06-22T06:59:39;24.00;99.90
13585;DHT22;6863;48.402;9.994;2023-06-22T07:02:05;24.10;99.90
13585;DHT22;6863;48.402;9.994;2023-06-22T07:04:30;24.10;99.90
13585;DHT22;6863;48.402;9.994;2023-06-22T07:06:56;24.20;99.90
13585;DHT22;6863;48.402;9.994;2023-06-22T07:09:21;24.40;99.90
13585;DHT22;6863;48.402;9.994;2023-06-22T07:11:47;24.50;99.90
13585;DHT22;6863;48.402;9.994;2023-06-22T07:14:12;24.60;99.90
13585;DHT22;6863;48.402;9.994;2023-06-22T07:16:41;24.60;99.90
13585;DHT22;6863;48.402;9.994;2023-06-22T07:19:07;24.60;99.90
13585;DHT22;6863;48.402;9.994;2023-06-22T07:21:33;24.70;99.90
13585;DHT22;6863;48.402;9.994;2023-06-22T07:23:58;24.90;99.20
13585;DHT22;6863;48.402;9.994;2023-06-22T07:26:33;25.30;98.80
13585;DHT22;6863;48.402;9.994;2023-06-22T07:28:59;25.30;98.50
13585;DHT22;6863;48.402;9.994;2023-06-22T07:31:25;25.50;98.40
13585;DHT22;6863;48.402;9.994;2023-06-22T07:33:51;25.60;97.80
13585;DHT22;6863;48.402;9.994;2023-06-22T07:36:17;25.70;98.30
13585;DHT22;6863;48.402;9.994;2023-06-22T07:38:43;25.80;98.30
13585;DHT22;6863;48.402;9.994;2023-06-22T07:41:09;26.10;97.60
13585;DHT22;6863;48.402;9.994;2023-06-22T07:43:35;26.40;96.60
13585;DHT22;6863;48.402;9.994;2023-06-22T07:46:03;26.60;96.30
13585;DHT22;6863;48.402;9.994;2023-06-22T07:48:29;26.70;96.30
13585;DHT22;6863;48.402;9.994;2023-06-22T07:50:55;26.70;95.30
13585;DHT22;6863;48.402;9.994;2023-06-22T07:53:21;26.80;95.20
13585;DHT22;6863;48.402;9.994;2023-06-22T07:55:49;27.00;95.00
13585;DHT22;6863;48.402;9.994;2023-06-22T07:58:15;26.80;95.60
13585;DHT22;6863;48.402;9.994;2023-06-22T08:00:41;27.10;95.40
13585;DHT22;6863;48.402;9.994;2023-06-22T08:03:06;27.30;95.50
13585;DHT22;6863;48.402;9.994;2023-06-22T08:05:32;27.80;93.90
13585;DHT22;6863;48.402;9.994;2023-06-22T08:08:11;28.00;93.90
13585;DHT22;6863;48.402;9.994;2023-06-22T08:10:37;28.10;93.20
13585;DHT22;6863;48.402;9.994;2023-06-22T08:13:03;28.30;92.80
13585;DHT22;6863;48.402;9.994;2023-06-22T08:15:28;28.60;92.70
13585;DHT22;6863;48.402;9.994;2023-06-22T08:17:54;28.60;91.90
13585;DHT22;6863;48.402;9.994;2023-06-22T08:20:20;28.60;91.60
13585;DHT22;6863;48.402;9.994;2023-06-22T08:22:46;28.90;91.60
13585;DHT22;6863;48.402;9.994;2023-06-22T08:25:12;29.20;90.80
13585;DHT22;6863;48.402;9.994;2023-06-22T08:27:38;29.40;90.00
13585;DHT22;6863;48.402;9.994;2023-06-22T08:30:04;29.40;90.00
13585;DHT22;6863;48.402;9.994;2023-06-22T08:32:30;29.60;88.70
13585;DHT22;6863;48.402;9.994;2023-06-22T08:34:58;29.70;88.40
13585;DHT22;6863;48.402;9.994;2023-06-22T08:37:24;29.70;88.30
13585;DHT22;6863;48.402;9.994;2023-06-22T08:39:59;29.50;88.00
13585;DHT22;6863;48.402;9.994;2023-06-22T08:42:24;29.60;87.60
13585;DHT22;6863;48.402;9.994;2023-06-22T08:44:51;30.00;86.70
13585;DHT22;6863;48.402;9.994;2023-06-22T08:47:16;30.30;85.50
13585;DHT22;6863;48.402;9.994;2023-06-22T08:49:42;30.80;83.70
13585;DHT22;6863;48.402;9.994;2023-06-22T08:52:07;30.80;83.00
13585;DHT22;6863;48.402;9.994;2023-06-22T08:54:33;30.50;84.50
13585;DHT22;6863;48.402;9.994;2023-06-22T08:57:00;31.10;82.30
13585;DHT22;6863;48.402;9.994;2023-06-22T08:59:25;31.60;80.60
13585;DHT22;6863;48.402;9.994;2023-06-22T09:01:51;31.80;79.20
13585;DHT22;6863;48.402;9.994;2023-06-22T09:04:17;32.20;77.90
13585;DHT22;6863;48.402;9.994;2023-06-22T09:06:42;32.40;77.20
13585;DHT22;6863;48.402;9.994;2023-06-22T09:09:15;32.40;76.40
13585;DHT22;6863;48.402;9.994;2023-06-22T09:11:41;32.60;76.30
13585;DHT22;6863;48.402;9.994;2023-06-22T09:14:06;33.30;75.00
13585;DHT22;6863;48.402;9.994;2023-06-22T09:16:32;33.40;71.60
13585;DHT22;6863;48.402;9.994;2023-06-22T09:18:58;33.30;72.00
13585;DHT22;6863;48.402;9.994;2023-06-22T09:21:23;33.90;71.30
13585;DHT22;6863;48.402;9.994;2023-06-22T09:23:49;34.20;69.40
13585;DHT22;6863;48.402;9.994;2023-06-22T09:26:17;34.00;68.70
13585;DHT22;6863;48.402;9.994;2023-06-22T09:28:43;34.40;66.60
13585;DHT22;6863;48.402;9.994;2023-06-22T09:31:09;35.00;64.90
13585;DHT22;6863;48.402;9.994;2023-06-22T09:33:35;36.10;61.90
13585;DHT22;6863;48.402;9.994;2023-06-22T09:36:01;36.80;59.20
13585;DHT22;6863;48.402;9.994;2023-06-22T09:38:27;37.20;57.60
13585;DHT22;6863;48.402;9.994;2023-06-22T09:40:53;38.10;55.40
13585;DHT22;6863;48.402;9.994;2023-06-22T09:43:18;38.00;54.40
13585;DHT22;6863;48.402;9.994;2023-06-22T09:45:44;37.40;54.90
13585;DHT22;6863;48.402;9.994;2023-06-22T09:48:09;37.70;53.80
13585;DHT22;6863;48.402;9.994;2023-06-22T09:50:35;38.00;52.90
13585;DHT22;6863;48.402;9.994;2023-06-22T09:53:02;38.30;52.50
13585;DHT22;6863;48.402;9.994;2023-06-22T09:55:28;39.60;49.20
13585;DHT22;6863;48.402;9.994;2023-06-22T09:57:54;39.30;48.10
13585;DHT22;6863;48.402;9.994;2023-06-22T10:00:21;39.40;48.10
13585;DHT22;6863;48.402;9.994;2023-06-22T10:02:47;38.10;50.40
13585;DHT22;6863;48.402;9.994;2023-06-22T10:05:12;38.50;50.40
13585;DHT22;6863;48.402;9.994;2023-06-22T10:07:41;39.60;48.10
13585;DHT22;6863;48.402;9.994;2023-06-22T10:10:10;40.30;47.50
13585;DHT22;6863;48.402;9.994;2023-06-22T10:12:35;41.00;45.40
13585;DHT22;6863;48.402;9.994;2023-06-22T10:15:01;41.40;43.60
13585;DHT22;6863;48.402;9.994;2023-06-22T10:17:32;41.60;42.70
13585;DHT22;6863;48.402;9.994;2023-06-22T10:19:58;42.60;41.50
13585;DHT22;6863;48.402;9.994;2023-06-22T10:22:23;44.00;38.30
13585;DHT22;6863;48.402;9.994;2023-06-22T10:24:49;43.90;38.00
13585;DHT22;6863;48.402;9.994;2023-06-22T10:27:17;43.60;38.40
13585;DHT22;6863;48.402;9.994;2023-06-22T10:29:44;42.40;39.70
13585;DHT22;6863;48.402;9.994;2023-06-22T10:32:10;41.60;41.20
13585;DHT22;6863;48.402;9.994;2023-06-22T10:34:37;41.60;41.20
13585;DHT22;6863;48.402;9.994;2023-06-22T10:37:02;43.60;37.90
13585;DHT22;6863;48.402;9.994;2023-06-22T10:39:28;44.60;36.20
13585;DHT22;6863;48.402;9.994;2023-06-22T10:41:57;43.90;36.40
13585;DHT22;6863;48.402;9.994;2023-06-22T10:44:22;43.40;36.80
13585;DHT22;6863;48.402;9.994;2023-06-22T10:46:48;42.50;38.20
13585;DHT22;6863;48.402;9.994;2023-06-22T10:49:16;42.10;38.00
13585;DHT22;6863;48.402;9.994;2023-06-22T10:51:42;41.80;38.10
13585;DHT22;6863;48.402;9.994;2023-06-22T10:54:07;40.70;39.50
13585;DHT22;6863;48.402;9.994;2023-06-22T10:56:33;40.40;40.40
13585;DHT22;6863;48.402;9.994;2023-06-22T10:58:59;40.50;40.50
13585;DHT22;6863;48.402;9.994;2023-06-22T11:01:24;41.40;39.10
13585;DHT22;6863;48.402;9.994;2023-06-22T11:03:50;42.50;38.00
13585;DHT22;6863;48.402;9.994;2023-06-22T11:06:15;42.00;37.90
13585;DHT22;6863;48.402;9.994;2023-06-22T11:08:44;41.40;38.80
13585;DHT22;6863;48.402;9.994;2023-06-22T11:11:10;40.80;39.70
13585;DHT22;6863;48.402;9.994;2023-06-22T11:13:35;39.10;42.30
13585;DHT22;6863;48.402;9.994;2023-06-22T11:16:01;39.20;41.50
13585;DHT22;6863;48.402;9.994;2023-06-22T11:18:26;38.60;42.40
13585;DHT22;6863;48.402;9.994;2023-06-22T11:20:52;38.80;42.40
13585;DHT22;6863;48.402;9.994;2023-06-22T11:23:18;39.40;42.00
13585;DHT22;6863;48.402;9.994;2023-06-22T11:25:44;39.40;40.80
13585;DHT22;6863;48.402;9.994;2023-06-22T11:28:11;40.00;40.20
13585;DHT22;6863;48.402;9.994;2023-06-22T11:30:37;40.10;40.00
13585;DHT22;6863;48.402;9.994;2023-06-22T11:33:03;40.50;39.10
13585;DHT22;6863;48.402;9.994;2023-06-22T11:35:28;39.80;39.20
13585;DHT22;6863;48.402;9.994;2023-06-22T11:37:54;38.80;41.30
13585;DHT22;6863;48.402;9.994;2023-06-22T11:40:21;39.60;40.80
13585;DHT22;6863;48.402;9.994;2023-06-22T11:42:48;39.30;40.40
13585;DHT22;6863;48.402;9.994;2023-06-22T11:45:13;38.70;41.70
13585;DHT22;6863;48.402;9.994;2023-06-22T11:47:39;37.90;42.20
13585;DHT22;6863;48.402;9.994;2023-06-22T11:50:06;37.00;43.70
13585;DHT22;6863;48.402;9.994;2023-06-22T11:52:33;36.50;46.20
13585;DHT22;6863;48.402;9.994;2023-06-22T11:54:59;36.30;45.40
13585;DHT22;6863;48.402;9.994;2023-06-22T11:57:24;35.80;47.10
13585;DHT22;6863;48.402;9.994;2023-06-22T11:59:50;35.00;50.10
13585;DHT22;6863;48.402;9.994;2023-06-22T12:02:16;35.10;49.90
13585;DHT22;6863;48.402;9.994;2023-06-22T12:04:41;34.90;50.10
13585;DHT22;6863;48.402;9.994;2023-06-22T12:07:07;35.20;50.30
13585;DHT22;6863;48.402;9.994;2023-06-22T12:09:32;35.80;48.90
13585;DHT22;6863;48.402;9.994;2023-06-22T12:11:58;36.30;48.70
13585;DHT22;6863;48.402;9.994;2023-06-22T12:14:24;38.00;46.90
13585;DHT22;6863;48.402;9.994;2023-06-22T12:16:49;39.70;43.80
13585;DHT22;6863;48.402;9.994;2023-06-22T12:19:15;41.80;41.20
13585;DHT22;6863;48.402;9.994;2023-06-22T12:21:40;41.90;40.50
13585;DHT22;6863;48.402;9.994;2023-06-22T12:24:06;41.70;40.40
13585;DHT22;6863;48.402;9.994;2023-06-22T12:26:32;40.90;41.20
13585;DHT22;6863;48.402;9.994;2023-06-22T12:28:57;40.30;41.90
13585;DHT22;6863;48.402;9.994;2023-06-22T12:31:23;38.90;43.90
13585;DHT22;6863;48.402;9.994;2023-06-22T12:33:48;37.80;46.80
13585;DHT22;6863;48.402;9.994;2023-06-22T12:36:14;36.80;48.00
13585;DHT22;6863;48.402;9.994;2023-06-22T12:38:41;36.20;49.50
13585;DHT22;6863;48.402;9.994;2023-06-22T12:41:07;36.20;50.10
13585;DHT22;6863;48.402;9.994;2023-06-22T12:43:32;36.80;48.80
13585;DHT22;6863;48.402;9.994;2023-06-22T12:45:58;37.50;47.30
13585;DHT22;6863;48.402;9.994;2023-06-22T12:48:26;36.80;48.00
13585;DHT22;6863;48.402;9.994;2023-06-22T12:50:51;37.20;47.70
13585;DHT22;6863;48.402;9.994;2023-06-22T12:53:17;37.40;47.40
13585;DHT22;6863;48.402;9.994;2023-06-22T12:55:42;37.50;46.60
13585;DHT22;6863;48.402;9.994;2023-06-22T12:58:08;36.80;47.60
13585;DHT22;6863;48.402;9.994;2023-06-22T13:00:34;36.70;48.20
13585;DHT22;6863;48.402;9.994;2023-06-22T13:02:59;36.50;48.00
13585;DHT22;6863;48.402;9.994;2023-06-22T13:05:26;36.20;49.20
13585;DHT22;6863;48.402;9.994;2023-06-22T13:07:55;36.70;48.70
13585;DHT22;6863;48.402;9.994;2023-06-22T13:10:20;36.60;48.10
13585;DHT22;6863;48.402;9.994;2023-06-22T13:12:46;36.60;47.50
13585;DHT22;6863;48.402;9.994;2023-06-22T13:15:11;36.80;47.30
13585;DHT22;6863;48.402;9.994;2023-06-22T13:17:37;37.10;46.80
13585;DHT22;6863;48.402;9.994;2023-06-22T13:20:03;37.30;46.00
13585;DHT22;6863;48.402;9.994;2023-06-22T13:22:34;38.50;44.90
13585;DHT22;6863;48.402;9.994;2023-06-22T13:25:06;40.20;42.30
13585;DHT22;6863;48.402;9.994;2023-06-22T13:27:32;39.90;42.00
13585;DHT22;6863;48.402;9.994;2023-06-22T13:29:58;39.80;42.10
13585;DHT22;6863;48.402;9.994;2023-06-22T13:32:23;39.10;42.70
13585;DHT22;6863;48.402;9.994;2023-06-22T13:34:49;37.90;44.80
13585;DHT22;6863;48.402;9.994;2023-06-22T13:37:15;36.80;47.00
13585;DHT22;6863;48.402;9.994;2023-06-22T13:39:41;35.90;48.80
13585;DHT22;6863;48.402;9.994;2023-06-22T13:42:07;35.00;50.90
13585;DHT22;6863;48.402;9.994;2023-06-22T13:44:33;34.60;51.90
13585;DHT22;6863;48.402;9.994;2023-06-22T13:47:01;34.40;52.60
13585;DHT22;6863;48.402;9.994;2023-06-22T13:49:31;34.50;52.80
13585;DHT22;6863;48.402;9.994;2023-06-22T13:51:56;34.70;52.20
13585;DHT22;6863;48.402;9.994;2023-06-22T13:54:22;34.70;51.90
13585;DHT22;6863;48.402;9.994;2023-06-22T13:56:48;35.00;52.30
13585;DHT22;6863;48.402;9.994;2023-06-22T13:59:13;34.80;52.30
13585;DHT22;6863;48.402;9.994;2023-06-22T14:01:39;34.40;53.10
13585;DHT22;6863;48.402;9.994;2023-06-22T14:04:06;34.40;53.50
13585;DHT22;6863;48.402;9.994;2023-06-22T14:06:32;34.80;53.60
13585;DHT22;6863;48.402;9.994;2023-06-22T14:08:57;34.70;53.10
13585;DHT22;6863;48.402;9.994;2023-06-22T14:11:24;34.50;54.00
13585;DHT22;6863;48.402;9.994;2023-06-22T14:13:50;34.10;56.10
13585;DHT22;6863;48.402;9.994;2023-06-22T14:16:15;34.00;56.50
13585;DHT22;6863;48.402;9.994;2023-06-22T14:18:41;34.70;54.70
13585;DHT22;6863;48.402;9.994;2023-06-22T14:21:07;35.40;52.50
13585;DHT22;6863;48.402;9.994;2023-06-22T14:23:33;35.70;51.20
13585;DHT22;6863;48.402;9.994;2023-06-22T14:25:58;35.00;53.80
13585;DHT22;6863;48.402;9.994;2023-06-22T14:28:24;34.70;55.40
13585;DHT22;6863;48.402;9.994;2023-06-22T14:30:50;35.40;53.80
13585;DHT22;6863;48.402;9.994;2023-06-22T14:33:15;36.60;52.10
13585;DHT22;6863;48.402;9.994;2023-06-22T14:35:41;36.90;51.70
13585;DHT22;6863;48.402;9.994;2023-06-22T14:38:06;36.60;52.20
13585;DHT22;6863;48.402;9.994;2023-06-22T14:40:32;36.70;51.70
13585;DHT22;6863;48.402;9.994;2023-06-22T14:42:58;37.00;51.30
13585;DHT22;6863;48.402;9.994;2023-06-22T14:45:23;36.90;50.70
13585;DHT22;6863;48.402;9.994;2023-06-22T14:47:49;37.00;50.40
13585;DHT22;6863;48.402;9.994;2023-06-22T14:50:15;36.60;50.80
13585;DHT22;6863;48.402;9.994;2023-06-22T14:52:41;36.60;51.00
13585;DHT22;6863;48.402;9.994;2023-06-22T14:55:07;36.70;51.30
13585;DHT22;6863;48.402;9.994;2023-06-22T14:57:33;36.20;51.90
13585;DHT22;6863;48.402;9.994;2023-06-22T14:59:58;35.60;53.30
13585;DHT22;6863;48.402;9.994;2023-06-22T15:02:24;34.60;54.30
13585;DHT22;6863;48.402;9.994;2023-06-22T15:04:50;33.70;56.50
13585;DHT22;6863;48.402;9.994;2023-06-22T15:07:15;33.70;56.70
13585;DHT22;6863;48.402;9.994;2023-06-22T15:09:41;34.10;56.20
13585;DHT22;6863;48.402;9.994;2023-06-22T15:12:08;34.30;56.00
13585;DHT22;6863;48.402;9.994;2023-06-22T15:14:40;34.50;55.60
13585;DHT22;6863;48.402;9.994;2023-06-22T15:17:07;34.30;56.00
13585;DHT22;6863;48.402;9.994;2023-06-22T15:19:36;33.70;57.40
13585;DHT22;6863;48.402;9.994;2023-06-22T15:22:05;33.60;58.20
13585;DHT22;6863;48.402;9.994;2023-06-22T15:24:32;33.40;58.70
13585;DHT22;6863;48.402;9.994;2023-06-22T15:26:58;33.30;59.50
13585;DHT22;6863;48.402;9.994;2023-06-22T15:29:24;33.00;60.80
13585;DHT22;6863;48.402;9.994;2023-06-22T15:31:49;32.70;61.50
13585;DHT22;6863;48.402;9.994;2023-06-22T15:34:15;32.50;62.20
13585;DHT22;6863;48.402;9.994;2023-06-22T15:36:41;32.60;61.90
13585;DHT22;6863;48.402;9.994;2023-06-22T15:39:06;32.80;61.50
13585;DHT22;6863;48.402;9.994;2023-06-22T15:41:32;32.40;62.40
13585;DHT22;6863;48.402;9.994;2023-06-22T15:43:58;32.40;63.00
13585;DHT22;6863;48.402;9.994;2023-06-22T15:46:23;32.60;62.50
13585;DHT22;6863;48.402;9.994;2023-06-22T15:48:49;32.80;62.40
13585;DHT22;6863;48.402;9.994;2023-06-22T15:51:15;32.60;62.70
13585;DHT22;6863;48.402;9.994;2023-06-22T15:53:41;32.00;64.20
13585;DHT22;6863;48.402;9.994;2023-06-22T15:56:06;31.60;66.10